sensor_id;sensor_type;location;lat;lon;timestamp;temperature;humidity
19017;DHT22;9641;51.494;6.670;2022-07-06T00:01:45;14.10;1.00
19017;DHT22;9641;51.494;6.670;2022-07-06T00:04:12;14.10;1.00
19017;DHT22;9641;51.494;6.670;2022-07-06T00:06:39;14.10;1.00
19017;DHT22;9641;51.494;6.670;2022-07-06T00:09:08;14.10;1.00
19017;DHT22;9641;51.494;6.670;2022-07-06T00:11:34;14.00;1.00
19017;DHT22;9641;51.494;6.670;2022-07-06T00:14:01;14.00;1.00
19017;DHT22;9641;51.494;6.670;2022-07-06T00:16:28;14.00;1.00
19017;DHT22;9641;51.494;6.670;2022-07-06T00:18:55;14.00;1.00
19017;DHT22;9641;51.494;6.670;2022-07-06T00:21:22;13.80;1.00
19017;DHT22;9641;51.494;6.670;2022-07-06T00:23:49;13.80;1.00
19017;DHT22;9641;51.494;6.670;2022-07-06T00:26:19;13.80;1.00
19017;DHT22;9641;51.494;6.670;2022-07-06T00:28:46;13.70;1.00
19017;DHT22;9641;51.494;6.670;2022-07-06T00:31:13;13.60;1.00
19017;DHT22;9641;51.494;6.670;2022-07-06T00:33:40;13.50;1.00
19017;DHT22;9641;51.494;6.670;2022-07-06T00:36:07;13.50;1.00
19017;DHT22;9641;51.494;6.670;2022-07-06T00:38:33;13.50;1.00
19017;DHT22;9641;51.494;6.670;2022-07-06T00:41:02;13.40;1.00
19017;DHT22;9641;51.494;6.670;2022-07-06T00:43:56;13.40;1.00
19017;DHT22;9641;51.494;6.670;2022-07-06T00:46:27;13.40;21.60
19017;DHT22;9641;51.494;6.670;2022-07-06T00:48:55;13.40;41.30
19017;DHT22;9641;51.494;6.670;2022-07-06T00:51:25;13.30;1.00
19017;DHT22;9641;51.494;6.670;2022-07-06T00:53:55;13.30;2.00
19017;DHT22;9641;51.494;6.670;2022-07-06T00:56:25;13.20;1.00
19017;DHT22;9641;51.494;6.670;2022-07-06T00:58:55;13.20;13.40
19017;DHT22;9641;51.494;6.670;2022-07-06T01:01:22;13.10;37.40
19017;DHT22;9641;51.494;6.670;2022-07-06T01:03:49;13.10;50.60
19017;DHT22;9641;51.494;6.670;2022-07-06T01:06:18;13.10;97.90
19017;DHT22;9641;51.494;6.670;2022-07-06T01:08:45;13.20;99.10
19017;DHT22;9641;51.494;6.670;2022-07-06T01:11:12;13.20;76.20
19017;DHT22;9641;51.494;6.670;2022-07-06T01:13:40;13.20;84.40
19017;DHT22;9641;51.494;6.670;2022-07-06T01:16:08;13.20;99.90
19017;DHT22;9641;51.494;6.670;2022-07-06T01:18:36;13.20;76.30
19017;DHT22;9641;51.494;6.670;2022-07-06T01:21:09;13.20;92.70
19017;DHT22;9641;51.494;6.670;2022-07-06T01:23:41;13.00;41.10
19017;DHT22;9641;51.494;6.670;2022-07-06T01:26:10;13.10;55.00
19017;DHT22;9641;51.494;6.670;2022-07-06T01:28:38;13.10;90.00
19017;DHT22;9641;51.494;6.670;2022-07-06T01:31:05;13.00;88.90
19017;DHT22;9641;51.494;6.670;2022-07-06T01:33:32;13.00;90.20
19017;DHT22;9641;51.494;6.670;2022-07-06T01:35:59;12.90;86.80
19017;DHT22;9641;51.494;6.670;2022-07-06T01:38:27;12.80;99.90
19017;DHT22;9641;51.494;6.670;2022-07-06T01:40:54;12.80;99.90
19017;DHT22;9641;51.494;6.670;2022-07-06T01:43:21;12.80;99.90
19017;DHT22;9641;51.494;6.670;2022-07-06T01:45:47;12.90;99.90
19017;DHT22;9641;51.494;6.670;2022-07-06T01:48:15;12.90;99.90
19017;DHT22;9641;51.494;6.670;2022-07-06T01:50:42;13.00;99.90
19017;DHT22;9641;51.494;6.670;2022-07-06T01:53:10;13.00;99.90
19017;DHT22;9641;51.494;6.670;2022-07-06T01:55:38;13.00;99.90
19017;DHT22;9641;51.494;6.670;2022-07-06T01:58:05;12.80;99.90
19017;DHT22;9641;51.494;6.670;2022-07-06T02:00:32;12.70;99.90
19017;DHT22;9641;51.494;6.670;2022-07-06T02:02:59;12.70;99.90
19017;DHT22;9641;51.494;6.670;2022-07-06T02:05:27;12.60;99.90
19017;DHT22;9641;51.494;6.670;2022-07-06T02:07:53;12.60;99.90
19017;DHT22;9641;51.494;6.670;2022-07-06T02:10:20;12.50;99.90
19017;DHT22;9641;51.494;6.670;2022-07-06T02:12:49;12.50;99.90
19017;DHT22;9641;51.494;6.670;2022-07-06T02:15:16;12.40;99.90
19017;DHT22;9641;51.494;6.670;2022-07-06T02:17:43;12.40;99.90
19017;DHT22;9641;51.494;6.670;2022-07-06T02:20:10;12.50;99.90
19017;DHT22;9641;51.494;6.670;2022-07-06T02:22:37;12.50;99.90
19017;DHT22;9641;51.494;6.670;2022-07-06T02:25:05;12.50;99.90
19017;DHT22;9641;51.494;6.670;2022-07-06T02:27:32;12.50;99.90
19017;DHT22;9641;51.494;6.670;2022-07-06T02:30:06;12.50;99.90
19017;DHT22;9641;51.494;6.670;2022-07-06T02:32:34;12.50;99.90
19017;DHT22;9641;51.494;6.670;2022-07-06T02:35:01;12.50;99.90
19017;DHT22;9641;51.494;6.670;2022-07-06T02:37:29;12.40;99.90
19017;DHT22;9641;51.494;6.670;2022-07-06T02:39:56;12.40;99.90
19017;DHT22;9641;51.494;6.670;2022-07-06T02:42:23;12.30;99.90
19017;DHT22;9641;51.494;6.670;2022-07-06T02:44:52;12.40;99.90
19017;DHT22;9641;51.494;6.670;2022-07-06T02:47:21;12.30;99.90
19017;DHT22;9641;51.494;6.670;2022-07-06T02:49:48;12.30;99.90
19017;DHT22;9641;51.494;6.670;2022-07-06T02:52:15;12.30;99.90
19017;DHT22;9641;51.494;6.670;2022-07-06T02:54:42;12.30;99.90
19017;DHT22;9641;51.494;6.670;2022-07-06T02:57:09;12.30;99.90
19017;DHT22;9641;51.494;6.670;2022-07-06T02:59:37;12.40;99.90
19017;DHT22;9641;51.494;6.670;2022-07-06T03:02:04;12.40;99.90
19017;DHT22;9641;51.494;6.670;2022-07-06T03:04:33;12.40;99.90
19017;DHT22;9641;51.494;6.670;2022-07-06T03:07:00;12.40;99.90
19017;DHT22;9641;51.494;6.670;2022-07-06T03:09:28;12.30;99.90
19017;DHT22;9641;51.494;6.670;2022-07-06T03:11:55;12.30;99.90
19017;DHT22;9641;51.494;6.670;2022-07-06T03:14:22;12.20;99.90
19017;DHT22;9641;51.494;6.670;2022-07-06T03:16:51;12.20;99.90
19017;DHT22;9641;51.494;6.670;2022-07-06T03:19:19;12.20;99.90
19017;DHT22;9641;51.494;6.670;2022-07-06T03:21:47;12.30;99.90
19017;DHT22;9641;51.494;6.670;2022-07-06T03:24:14;12.40;99.90
19017;DHT22;9641;51.494;6.670;2022-07-06T03:26:41;12.30;99.90
19017;DHT22;9641;51.494;6.670;2022-07-06T03:29:08;12.40;99.90
19017;DHT22;9641;51.494;6.670;2022-07-06T03:31:35;12.40;99.90
19017;DHT22;9641;51.494;6.670;2022-07-06T03:34:03;12.30;99.90
19017;DHT22;9641;51.494;6.670;2022-07-06T03:36:30;12.40;99.90
19017;DHT22;9641;51.494;6.670;2022-07-06T03:38:58;12.40;99.90
19017;DHT22;9641;51.494;6.670;2022-07-06T03:41:26;12.40;99.90
19017;DHT22;9641;51.494;6.670;2022-07-06T03:43:53;12.50;99.90
19017;DHT22;9641;51.494;6.670;2022-07-06T03:46:20;12.50;99.90
19017;DHT22;9641;51.494;6.670;2022-07-06T03:48:47;12.50;99.90
19017;DHT22;9641;51.494;6.670;2022-07-06T03:51:14;12.50;99.90
19017;DHT22;9641;51.494;6.670;2022-07-06T03:53:41;12.50;99.90
19017;DHT22;9641;51.494;6.670;2022-07-06T03:56:09;12.50;99.90
19017;DHT22;9641;51.494;6.670;2022-07-06T03:58:59;12.60;99.90
19017;DHT22;9641;51.494;6.670;2022-07-06T04:01:28;12.60;99.90
19017;DHT22;9641;51.494;6.670;2022-07-06T04:03:56;12.70;99.90
19017;DHT22;9641;51.494;6.670;2022-07-06T04:06:23;12.80;99.90
19017;DHT22;9641;51.494;6.670;2022-07-06T04:08:51;12.80;99.90
19017;DHT22;9641;51.494;6.670;2022-07-06T04:11:20;12.90;99.90
19017;DHT22;9641;51.494;6.670;2022-07-06T04:13:48;13.00;99.90
19017;DHT22;9641;51.494;6.670;2022-07-06T04:16:15;13.00;99.90
19017;DHT22;9641;51.494;6.670;2022-07-06T04:18:42;13.10;99.90
19017;DHT22;9641;51.494;6.670;2022-07-06T04:21:09;13.10;99.90
19017;DHT22;9641;51.494;6.670;2022-07-06T04:23:36;13.20;99.90
19017;DHT22;9641;51.494;6.670;2022-07-06T04:26:06;13.20;99.90
19017;DHT22;9641;51.494;6.670;2022-07-06T04:28:37;13.30;99.90
19017;DHT22;9641;51.494;6.670;2022-07-06T04:31:04;13.30;99.90
19017;DHT22;9641;51.494;6.670;2022-07-06T04:33:31;13.50;99.90
19017;DHT22;9641;51.494;6.670;2022-07-06T04:35:59;13.50;99.90
19017;DHT22;9641;51.494;6.670;2022-07-06T04:38:34;13.60;99.90
19017;DHT22;9641;51.494;6.670;2022-07-06T04:41:04;13.60;99.90
19017;DHT22;9641;51.494;6.670;2022-07-06T04:43:31;13.70;99.90
19017;DHT22;9641;51.494;6.670;2022-07-06T04:46:01;13.80;99.90
19017;DHT22;9641;51.494;6.670;2022-07-06T04:48:29;13.80;99.90
19017;DHT22;9641;51.494;6.670;2022-07-06T04:50:58;13.90;99.90
19017;DHT22;9641;51.494;6.670;2022-07-06T04:53:27;13.90;99.90
19017;DHT22;9641;51.494;6.670;2022-07-06T04:55:55;13.90;96.70
19017;DHT22;9641;51.494;6.670;2022-07-06T04:58:23;14.00;99.90
19017;DHT22;9641;51.494;6.670;2022-07-06T05:00:50;14.10;99.90
19017;DHT22;9641;51.494;6.670;2022-07-06T05:03:18;14.10;99.90
19017;DHT22;9641;51.494;6.670;2022-07-06T05:05:46;14.20;90.70
19017;DHT22;9641;51.494;6.670;2022-07-06T05:08:13;14.30;66.90
19017;DHT22;9641;51.494;6.670;2022-07-06T05:10:40;14.40;55.30
19017;DHT22;9641;51.494;6.670;2022-07-06T05:13:07;14.50;55.70
19017;DHT22;9641;51.494;6.670;2022-07-06T05:15:34;14.50;68.50
19017;DHT22;9641;51.494;6.670;2022-07-06T05:18:02;14.50;62.60
19017;DHT22;9641;51.494;6.670;2022-07-06T05:20:30;14.40;10.10
19017;DHT22;9641;51.494;6.670;2022-07-06T05:22:57;14.50;26.90
19017;DHT22;9641;51.494;6.670;2022-07-06T05:25:28;14.50;20.00
19017;DHT22;9641;51.494;6.670;2022-07-06T05:27:57;14.60;46.10
19017;DHT22;9641;51.494;6.670;2022-07-06T05:30:24;14.60;1.00
19017;DHT22;9641;51.494;6.670;2022-07-06T05:32:51;14.70;1.00
19017;DHT22;9641;51.494;6.670;2022-07-06T05:35:17;14.70;1.00
19017;DHT22;9641;51.494;6.670;2022-07-06T05:37:46;14.70;1.00
19017;DHT22;9641;51.494;6.670;2022-07-06T05:40:13;14.90;1.00
19017;DHT22;9641;51.494;6.670;2022-07-06T05:42:40;15.00;1.00
19017;DHT22;9641;51.494;6.670;2022-07-06T05:45:07;15.00;1.00
19017;DHT22;9641;51.494;6.670;2022-07-06T05:47:34;15.10;1.00
19017;DHT22;9641;51.494;6.670;2022-07-06T05:50:29;14.90;1.00
19017;DHT22;9641;51.494;6.670;2022-07-06T05:52:59;15.10;1.00
19017;DHT22;9641;51.494;6.670;2022-07-06T05:55:28;15.10;1.00
19017;DHT22;9641;51.494;6.670;2022-07-06T05:57:57;15.20;1.00
19017;DHT22;9641;51.494;6.670;2022-07-06T06:00:27;15.20;1.00
19017;DHT22;9641;51.494;6.670;2022-07-06T06:02:59;15.20;1.00
19017;DHT22;9641;51.494;6.670;2022-07-06T06:05:26;15.20;1.00
19017;DHT22;9641;51.494;6.670;2022-07-06T06:08:00;15.30;1.00
19017;DHT22;9641;51.494;6.670;2022-07-06T06:10:28;15.40;1.00
19017;DHT22;9641;51.494;6.670;2022-07-06T06:12:58;15.30;1.00
19017;DHT22;9641;51.494;6.670;2022-07-06T06:15:26;15.50;1.00
19017;DHT22;9641;51.494;6.670;2022-07-06T06:17:53;15.50;1.00
19017;DHT22;9641;51.494;6.670;2022-07-06T06:20:20;15.60;1.00
19017;DHT22;9641;51.494;6.670;2022-07-06T06:22:48;15.60;1.00
19017;DHT22;9641;51.494;6.670;2022-07-06T06:25:17;15.80;1.00
19017;DHT22;9641;51.494;6.670;2022-07-06T06:27:45;15.80;1.00
19017;DHT22;9641;51.494;6.670;2022-07-06T06:30:13;15.80;1.00
19017;DHT22;9641;51.494;6.670;2022-07-06T06:32:40;15.80;1.00
19017;DHT22;9641;51.494;6.670;2022-07-06T06:35:07;15.90;99.90
19017;DHT22;9641;51.494;6.670;2022-07-06T06:37:34;16.00;99.90
19017;DHT22;9641;51.494;6.670;2022-07-06T06:40:02;16.10;99.90
19017;DHT22;9641;51.494;6.670;2022-07-06T06:42:30;16.20;93.30
19017;DHT22;9641;51.494;6.670;2022-07-06T06:44:58;16.10;1.00
19017;DHT22;9641;51.494;6.670;2022-07-06T06:47:25;16.20;99.90
19017;DHT22;9641;51.494;6.670;2022-07-06T06:49:52;16.20;1.00
19017;DHT22;9641;51.494;6.670;2022-07-06T06:52:19;16.50;99.90
19017;DHT22;9641;51.494;6.670;2022-07-06T06:54:45;16.60;99.90
19017;DHT22;9641;51.494;6.670;2022-07-06T06:57:12;16.70;99.90
19017;DHT22;9641;51.494;6.670;2022-07-06T06:59:41;16.80;1.00
19017;DHT22;9641;51.494;6.670;2022-07-06T07:02:08;16.80;1.00
19017;DHT22;9641;51.494;6.670;2022-07-06T07:04:38;16.80;99.90
19017;DHT22;9641;51.494;6.670;2022-07-06T07:07:05;16.90;1.00
19017;DHT22;9641;51.494;6.670;2022-07-06T07:09:32;17.00;1.00
19017;DHT22;9641;51.494;6.670;2022-07-06T07:11:59;17.10;1.00
19017;DHT22;9641;51.494;6.670;2022-07-06T07:14:26;17.30;99.90
19017;DHT22;9641;51.494;6.670;2022-07-06T07:16:55;17.20;1.00
19017;DHT22;9641;51.494;6.670;2022-07-06T07:19:22;17.30;99.90
19017;DHT22;9641;51.494;6.670;2022-07-06T07:21:49;17.40;99.90
19017;DHT22;9641;51.494;6.670;2022-07-06T07:24:16;17.30;99.90
19017;DHT22;9641;51.494;6.670;2022-07-06T07:26:45;17.30;95.40
19017;DHT22;9641;51.494;6.670;2022-07-06T07:29:12;17.30;1.00
19017;DHT22;9641;51.494;6.670;2022-07-06T07:31:42;17.40;1.00
19017;DHT22;9641;51.494;6.670;2022-07-06T07:34:18;17.50;1.00
19017;DHT22;9641;51.494;6.670;2022-07-06T07:36:45;17.30;99.90
19017;DHT22;9641;51.494;6.670;2022-07-06T07:39:14;17.20;1.00
19017;DHT22;9641;51.494;6.670;2022-07-06T07:41:41;17.30;1.00
19017;DHT22;9641;51.494;6.670;2022-07-06T07:44:08;17.20;1.00
19017;DHT22;9641;51.494;6.670;2022-07-06T07:46:36;17.10;1.00
19017;DHT22;9641;51.494;6.670;2022-07-06T07:49:04;17.10;99.90
19017;DHT22;9641;51.494;6.670;2022-07-06T07:51:35;17.10;99.90
19017;DHT22;9641;51.494;6.670;2022-07-06T07:54:01;17.00;1.00
19017;DHT22;9641;51.494;6.670;2022-07-06T07:56:28;17.10;1.00
19017;DHT22;9641;51.494;6.670;2022-07-06T07:58:55;17.10;1.00
19017;DHT22;9641;51.494;6.670;2022-07-06T08:01:27;17.30;1.00
19017;DHT22;9641;51.494;6.670;2022-07-06T08:03:54;17.40;1.00
19017;DHT22;9641;51.494;6.670;2022-07-06T08:06:21;17.50;90.50
19017;DHT22;9641;51.494;6.670;2022-07-06T08:08:49;17.50;1.00
19017;DHT22;9641;51.494;6.670;2022-07-06T08:11:16;17.50;1.00
19017;DHT22;9641;51.494;6.670;2022-07-06T08:13:43;17.60;1.00
19017;DHT22;9641;51.494;6.670;2022-07-06T08:16:10;17.80;1.00
19017;DHT22;9641;51.494;6.670;2022-07-06T08:18:37;17.90;1.00
19017;DHT22;9641;51.494;6.670;2022-07-06T08:21:04;17.90;1.00
19017;DHT22;9641;51.494;6.670;2022-07-06T08:23:31;17.80;1.00
19017;DHT22;9641;51.494;6.670;2022-07-06T08:26:02;17.80;1.00
19017;DHT22;9641;51.494;6.670;2022-07-06T08:28:28;17.90;1.00
19017;DHT22;9641;51.494;6.670;2022-07-06T08:30:56;18.10;1.00
19017;DHT22;9641;51.494;6.670;2022-07-06T08:33:23;18.40;99.90
19017;DHT22;9641;51.494;6.670;2022-07-06T08:35:50;18.60;99.90
19017;DHT22;9641;51.494;6.670;2022-07-06T08:38:17;18.70;99.90
19017;DHT22;9641;51.494;6.670;2022-07-06T08:40:47;18.90;99.90
19017;DHT22;9641;51.494;6.670;2022-07-06T08:43:16;19.20;99.90
19017;DHT22;9641;51.494;6.670;2022-07-06T08:45:44;19.20;99.90
19017;DHT22;9641;51.494;6.670;2022-07-06T08:48:12;19.00;99.90
19017;DHT22;9641;51.494;6.670;2022-07-06T08:50:39;19.00;99.90
19017;DHT22;9641;51.494;6.670;2022-07-06T08:53:06;19.00;99.90
19017;DHT22;9641;51.494;6.670;2022-07-06T08:55:33;19.30;99.90
19017;DHT22;9641;51.494;6.670;2022-07-06T08:58:01;19.20;99.90
19017;DHT22;9641;51.494;6.670;2022-07-06T09:00:32;19.30;99.90
19017;DHT22;9641;51.494;6.670;2022-07-06T09:02:59;19.10;99.90
19017;DHT22;9641;51.494;6.670;2022-07-06T09:05:28;18.90;99.90
19017;DHT22;9641;51.494;6.670;2022-07-06T09:07:56;18.70;99.90
19017;DHT22;9641;51.494;6.670;2022-07-06T09:10:23;18.90;99.90
19017;DHT22;9641;51.494;6.670;2022-07-06T09:12:50;19.00;99.90
19017;DHT22;9641;51.494;6.670;2022-07-06T09:15:17;18.90;99.90
19017;DHT22;9641;51.494;6.670;2022-07-06T09:17:45;18.70;99.90
19017;DHT22;9641;51.494;6.670;2022-07-06T09:20:13;18.50;99.90
19017;DHT22;9641;51.494;6.670;2022-07-06T09:22:40;18.50;99.90
19017;DHT22;9641;51.494;6.670;2022-07-06T09:25:09;18.60;99.90
19017;DHT22;9641;51.494;6.670;2022-07-06T09:27:37;18.60;99.90
19017;DHT22;9641;51.494;6.670;2022-07-06T09:30:06;18.70;99.90
19017;DHT22;9641;51.494;6.670;2022-07-06T09:32:39;18.90;99.90
19017;DHT22;9641;51.494;6.670;2022-07-06T09:35:08;18.90;99.90
19017;DHT22;9641;51.494;6.670;2022-07-06T09:37:35;19.10;99.90
19017;DHT22;9641;51.494;6.670;2022-07-06T09:40:15;19.50;99.90
19017;DHT22;9641;51.494;6.670;2022-07-06T09:42:42;19.70;99.90
19017;DHT22;9641;51.494;6.670;2022-07-06T09:45:09;20.10;99.90
19017;DHT22;9641;51.494;6.670;2022-07-06T09:47:36;20.20;99.90
19017;DHT22;9641;51.494;6.670;2022-07-06T09:50:07;20.10;99.90
19017;DHT22;9641;51.494;6.670;2022-07-06T09:52:34;20.40;99.90
19017;DHT22;9641;51.494;6.670;2022-07-06T09:55:06;20.40;99.90
19017;DHT22;9641;51.494;6.670;2022-07-06T09:57:52;20.30;99.90
19017;DHT22;9641;51.494;6.670;2022-07-06T10:00:19;20.40;99.90
19017;DHT22;9641;51.494;6.670;2022-07-06T10:02:46;20.30;99.90
19017;DHT22;9641;51.494;6.670;2022-07-06T10:05:16;20.00;99.90
19017;DHT22;9641;51.494;6.670;2022-07-06T10:07:45;19.90;99.90
19017;DHT22;9641;51.494;6.670;2022-07-06T10:10:12;19.90;99.90
19017;DHT22;9641;51.494;6.670;2022-07-06T10:12:40;19.90;99.90
19017;DHT22;9641;51.494;6.670;2022-07-06T10:15:09;20.10;99.90
19017;DHT22;9641;51.494;6.670;2022-07-06T10:17:40;20.10;99.90
19017;DHT22;9641;51.494;6.670;2022-07-06T10:20:09;20.40;99.90
19017;DHT22;9641;51.494;6.670;2022-07-06T10:22:39;20.60;98.00
19017;DHT22;9641;51.494;6.670;2022-07-06T10:25:07;20.50;83.10
19017;DHT22;9641;51.494;6.670;2022-07-06T10:27:35;20.60;83.30
19017;DHT22;9641;51.494;6.670;2022-07-06T10:30:02;21.00;84.90
19017;DHT22;9641;51.494;6.670;2022-07-06T10:32:29;21.50;97.80
19017;DHT22;9641;51.494;6.670;2022-07-06T10:34:56;21.80;79.40
19017;DHT22;9641;51.494;6.670;2022-07-06T10:37:24;21.70;66.00
19017;DHT22;9641;51.494;6.670;2022-07-06T10:39:55;21.50;85.40
19017;DHT22;9641;51.494;6.670;2022-07-06T10:42:40;21.20;54.90
19017;DHT22;9641;51.494;6.670;2022-07-06T10:45:08;21.00;56.80
19017;DHT22;9641;51.494;6.670;2022-07-06T10:47:35;21.00;57.70
19017;DHT22;9641;51.494;6.670;2022-07-06T10:50:03;21.20;68.60
19017;DHT22;9641;51.494;6.670;2022-07-06T10:52:49;21.30;60.00
19017;DHT22;9641;51.494;6.670;2022-07-06T10:55:30;21.90;62.10
19017;DHT22;9641;51.494;6.670;2022-07-06T10:57:57;22.00;45.40
19017;DHT22;9641;51.494;6.670;2022-07-06T11:00:25;21.90;51.40
19017;DHT22;9641;51.494;6.670;2022-07-06T11:02:52;21.70;36.10
19017;DHT22;9641;51.494;6.670;2022-07-06T11:05:41;22.00;50.90
19017;DHT22;9641;51.494;6.670;2022-07-06T11:08:09;22.10;33.50
19017;DHT22;9641;51.494;6.670;2022-07-06T11:10:48;22.00;41.00
19017;DHT22;9641;51.494;6.670;2022-07-06T11:13:26;22.00;32.70
19017;DHT22;9641;51.494;6.670;2022-07-06T11:16:00;22.10;45.70
19017;DHT22;9641;51.494;6.670;2022-07-06T11:18:39;22.30;50.90
19017;DHT22;9641;51.494;6.670;2022-07-06T11:21:18;22.20;48.60
19017;DHT22;9641;51.494;6.670;2022-07-06T11:23:47;22.10;58.30
19017;DHT22;9641;51.494;6.670;2022-07-06T11:26:17;21.80;29.00
19017;DHT22;9641;51.494;6.670;2022-07-06T11:28:46;21.40;18.00
19017;DHT22;9641;51.494;6.670;2022-07-06T11:31:15;21.50;26.30
19017;DHT22;9641;51.494;6.670;2022-07-06T11:33:45;21.60;24.30
19017;DHT22;9641;51.494;6.670;2022-07-06T11:36:14;21.60;26.10
19017;DHT22;9641;51.494;6.670;2022-07-06T11:38:42;21.90;22.80
19017;DHT22;9641;51.494;6.670;2022-07-06T11:41:10;22.10;27.20
19017;DHT22;9641;51.494;6.670;2022-07-06T11:43:41;22.40;29.50
19017;DHT22;9641;51.494;6.670;2022-07-06T11:46:27;22.50;28.10
19017;DHT22;9641;51.494;6.670;2022-07-06T11:48:55;22.50;33.90
19017;DHT22;9641;51.494;6.670;2022-07-06T11:51:23;23.00;41.00
19017;DHT22;9641;51.494;6.670;2022-07-06T11:53:51;22.80;21.10
19017;DHT22;9641;51.494;6.670;2022-07-06T11:56:19;22.70;18.40
19017;DHT22;9641;51.494;6.670;2022-07-06T11:58:50;22.90;17.00
19017;DHT22;9641;51.494;6.670;2022-07-06T12:01:18;23.60;15.20
19017;DHT22;9641;51.494;6.670;2022-07-06T12:03:46;23.40;17.00
19017;DHT22;9641;51.494;6.670;2022-07-06T12:06:15;23.10;10.10
19017;DHT22;9641;51.494;6.670;2022-07-06T12:08:43;22.70;7.40
19017;DHT22;9641;51.494;6.670;2022-07-06T12:11:11;23.10;11.40
19017;DHT22;9641;51.494;6.670;2022-07-06T12:13:42;23.50;15.60
19017;DHT22;9641;51.494;6.670;2022-07-06T12:16:12;24.10;6.10
19017;DHT22;9641;51.494;6.670;2022-07-06T12:18:41;24.20;1.00
19017;DHT22;9641;51.494;6.670;2022-07-06T12:21:08;24.90;28.00
19017;DHT22;9641;51.494;6.670;2022-07-06T12:23:44;25.50;1.00
19017;DHT22;9641;51.494;6.670;2022-07-06T12:26:12;25.90;1.00
19017;DHT22;9641;51.494;6.670;2022-07-06T12:28:40;25.60;1.00
19017;DHT22;9641;51.494;6.670;2022-07-06T12:31:07;25.30;1.00
19017;DHT22;9641;51.494;6.670;2022-07-06T12:33:36;24.70;1.00
19017;DHT22;9641;51.494;6.670;2022-07-06T12:36:12;24.20;1.00
19017;DHT22;9641;51.494;6.670;2022-07-06T12:38:47;23.80;1.00
19017;DHT22;9641;51.494;6.670;2022-07-06T12:41:31;24.40;1.00
19017;DHT22;9641;51.494;6.670;2022-07-06T12:44:10;25.30;1.00
19017;DHT22;9641;51.494;6.670;2022-07-06T12:46:41;26.20;1.00
19017;DHT22;9641;51.494;6.670;2022-07-06T12:49:14;27.20;1.00
19017;DHT22;9641;51.494;6.670;2022-07-06T12:51:56;27.00;1.00
19017;DHT22;9641;51.494;6.670;2022-07-06T12:54:26;27.10;1.00
19017;DHT22;9641;51.494;6.670;2022-07-06T12:57:02;27.10;1.00
19017;DHT22;9641;51.494;6.670;2022-07-06T12:59:37;26.70;1.00
19017;DHT22;9641;51.494;6.670;2022-07-06T13:02:05;26.00;1.00
19017;DHT22;9641;51.494;6.670;2022-07-06T13:04:36;25.10;1.00
19017;DHT22;9641;51.494;6.670;2022-07-06T13:07:04;25.30;1.00
19017;DHT22;9641;51.494;6.670;2022-07-06T13:09:31;26.20;1.00
19017;DHT22;9641;51.494;6.670;2022-07-06T13:11:58;27.00;1.00
19017;DHT22;9641;51.494;6.670;2022-07-06T13:14:25;27.30;1.00
19017;DHT22;9641;51.494;6.670;2022-07-06T13:16:51;27.40;1.00
19017;DHT22;9641;51.494;6.670;2022-07-06T13:19:19;27.20;1.00
19017;DHT22;9641;51.494;6.670;2022-07-06T13:21:47;25.90;1.00
19017;DHT22;9641;51.494;6.670;2022-07-06T13:24:14;25.20;1.00
19017;DHT22;9641;51.494;6.670;2022-07-06T13:26:41;25.10;1.00
19017;DHT22;9641;51.494;6.670;2022-07-06T13:29:08;25.20;1.00
19017;DHT22;9641;51.494;6.670;2022-07-06T13:31:36;25.70;1.00
19017;DHT22;9641;51.494;6.670;2022-07-06T13:34:04;26.50;1.00
19017;DHT22;9641;51.494;6.670;2022-07-06T13:36:31;27.40;1.00
19017;DHT22;9641;51.494;6.670;2022-07-06T13:38:59;27.90;1.00
19017;DHT22;9641;51.494;6.670;2022-07-06T13:41:26;29.30;1.00
19017;DHT22;9641;51.494;6.670;2022-07-06T13:43:53;29.40;1.00
19017;DHT22;9641;51.494;6.670;2022-07-06T13:46:20;28.40;1.00
19017;DHT22;9641;51.494;6.670;2022-07-06T13:48:47;27.50;1.00
19017;DHT22;9641;51.494;6.670;2022-07-06T13:51:14;27.60;1.00
19017;DHT22;9641;51.494;6.670;2022-07-06T13:53:41;27.80;1.00
19017;DHT22;9641;51.494;6.670;2022-07-06T13:56:10;28.10;1.00
19017;DHT22;9641;51.494;6.670;2022-07-06T13:58:37;28.50;1.00
19017;DHT22;9641;51.494;6.670;2022-07-06T14:01:04;27.40;1.00
19017;DHT22;9641;51.494;6.670;2022-07-06T14:03:33;26.30;1.00
19017;DHT22;9641;51.494;6.670;2022-07-06T14:06:06;26.20;1.00
19017;DHT22;9641;51.494;6.670;2022-07-06T14:08:34;27.40;1.00
19017;DHT22;9641;51.494;6.670;2022-07-06T14:11:01;28.30;1.00
19017;DHT22;9641;51.494;6.670;2022-07-06T14:13:31;29.30;1.00
19017;DHT22;9641;51.494;6.670;2022-07-06T14:15:58;30.70;1.00
19017;DHT22;9641;51.494;6.670;2022-07-06T14:18:26;29.30;1.00
19017;DHT22;9641;51.494;6.670;2022-07-06T14:20:53;28.50;1.00
19017;DHT22;9641;51.494;6.670;2022-07-06T14:23:21;27.60;1.00
19017;DHT22;9641;51.494;6.670;2022-07-06T14:25:50;26.70;1.00
19017;DHT22;9641;51.494;6.670;2022-07-06T14:28:17;26.70;1.00
19017;DHT22;9641;51.494;6.670;2022-07-06T14:30:59;27.10;1.00
19017;DHT22;9641;51.494;6.670;2022-07-06T14:33:28;27.00;1.00
19017;DHT22;9641;51.494;6.670;2022-07-06T14:35:58;27.50;1.00
19017;DHT22;9641;51.494;6.670;2022-07-06T14:38:25;28.00;1.00
19017;DHT22;9641;51.494;6.670;2022-07-06T14:40:54;27.60;1.00
19017;DHT22;9641;51.494;6.670;2022-07-06T14:43:23;28.20;1.00
19017;DHT22;9641;51.494;6.670;2022-07-06T14:45:51;29.80;1.00
19017;DHT22;9641;51.494;6.670;2022-07-06T14:48:21;30.50;1.00
19017;DHT22;9641;51.494;6.670;2022-07-06T14:50:48;31.50;1.00
19017;DHT22;9641;51.494;6.670;2022-07-06T14:53:15;31.80;1.00
19017;DHT22;9641;51.494;6.670;2022-07-06T14:55:42;30.20;1.00
19017;DHT22;9641;51.494;6.670;2022-07-06T14:58:09;30.10;1.00
19017;DHT22;9641;51.494;6.670;2022-07-06T15:00:36;31.10;1.00
19017;DHT22;9641;51.494;6.670;2022-07-06T15:03:03;30.90;1.00
19017;DHT22;9641;51.494;6.670;2022-07-06T15:05:32;29.80;1.00
19017;DHT22;9641;51.494;6.670;2022-07-06T15:07:59;28.50;1.00
19017;DHT22;9641;51.494;6.670;2022-07-06T15:10:26;28.50;1.00
19017;DHT22;9641;51.494;6.670;2022-07-06T15:12:53;29.20;1.00
19017;DHT22;9641;51.494;6.670;2022-07-06T15:15:20;30.70;1.00
19017;DHT22;9641;51.494;6.670;2022-07-06T15:17:47;31.10;1.00
19017;DHT22;9641;51.494;6.670;2022-07-06T15:20:14;30.90;1.00
19017;DHT22;9641;51.494;6.670;2022-07-06T15:22:43;29.70;1.00
19017;DHT22;9641;51.494;6.670;2022-07-06T15:25:10;28.70;1.00
19017;DHT22;9641;51.494;6.670;2022-07-06T15:27:37;28.50;1.00
19017;DHT22;9641;51.494;6.670;2022-07-06T15:30:06;29.70;1.00
19017;DHT22;9641;51.494;6.670;2022-07-06T15:32:33;29.70;1.00
19017;DHT22;9641;51.494;6.670;2022-07-06T15:35:00;29.80;1.00
19017;DHT22;9641;51.494;6.670;2022-07-06T15:37:30;30.80;1.00
19017;DHT22;9641;51.494;6.670;2022-07-06T15:39:59;32.40;1.00
19017;DHT22;9641;51.494;6.670;2022-07-06T15:42:26;33.80;1.00
19017;DHT22;9641;51.494;6.670;2022-07-06T15:45:04;34.20;1.00
19017;DHT22;9641;51.494;6.670;2022-07-06T15:47:32;32.20;1.00
19017;DHT22;9641;51.494;6.670;2022-07-06T15:50:02;30.30;1.00
19017;DHT22;9641;51.494;6.670;2022-07-06T15:52:29;29.00;1.00
19017;DHT22;9641;51.494;6.670;2022-07-06T15:54:59;28.70;1.00
19017;DHT22;9641;51.494;6.670;2022-07-06T15:57:26;30.50;1.00
19017;DHT22;9641;51.494;6.670;2022-07-06T15:59:53;32.80;1.00
19017;DHT22;9641;51.494;6.670;2022-07-06T16:02:19;32.40;1.00